TVS4453 SCCF-SCFA
Flight info
| Callsign | TVS4453 |
|---|---|
| Flight time | 0h 29m |
| Altitude | 18000 |
| Route | TATIO3N TATIO DCT EKENO DCT FA261 DCT NEDAV DCT IRIKI |
| Aircraft | B38M/M-SDE3FGHIJ1J3J4J7M3P2RWXYZ/LB1D1 |
Departure
| Time | 2026-04-29 17:19 |
|---|---|
| Airport | El Loa Airport (SCCF) |
Arrival
| Time | 2026-04-29 17:48 |
|---|---|
| Airport | Andrés Sabella Gálvez International Airport (SCFA) |
| Time | Latitude | Longitude | Altitude | Speed | Heading |
|---|---|---|---|---|---|
| 2026-04-29 16:51 | -22.49590 | -68.90879 | 7512 ft | 0 kts | 3° |
| 2026-04-29 17:10 | -22.49605 | -68.90880 | 7467 ft | 4 kts | 7° |
| 2026-04-29 17:10 | -22.49631 | -68.90885 | 7472 ft | 4 kts | 18° |
| 2026-04-29 17:10 | -22.49655 | -68.90897 | 7469 ft | 4 kts | 33° |
| 2026-04-29 17:10 | -22.49663 | -68.90903 | 7475 ft | 1 kts | 37° |
| 2026-04-29 17:13 | -22.49663 | -68.90902 | 7475 ft | 0 kts | 38° |
| 2026-04-29 17:13 | -22.49655 | -68.90882 | 7479 ft | 7 kts | 76° |
| 2026-04-29 17:14 | -22.49656 | -68.90804 | 7474 ft | 9 kts | 94° |
| 2026-04-29 17:14 | -22.49707 | -68.90774 | 7486 ft | 10 kts | 182° |
| 2026-04-29 17:14 | -22.49795 | -68.90767 | 7478 ft | 10 kts | 136° |
| 2026-04-29 17:14 | -22.49812 | -68.90707 | 7489 ft | 10 kts | 97° |
| 2026-04-29 17:15 | -22.49820 | -68.90607 | 7502 ft | 16 kts | 95° |
| 2026-04-29 17:15 | -22.49831 | -68.90455 | 7492 ft | 23 kts | 94° |
| 2026-04-29 17:15 | -22.49844 | -68.90257 | 7532 ft | 28 kts | 95° |
| 2026-04-29 17:15 | -22.49857 | -68.90048 | 7550 ft | 26 kts | 94° |
| 2026-04-29 17:16 | -22.49869 | -68.89870 | 7565 ft | 22 kts | 92° |
| 2026-04-29 17:16 | -22.49881 | -68.89711 | 7575 ft | 23 kts | 95° |
| 2026-04-29 17:16 | -22.49894 | -68.89516 | 7586 ft | 29 kts | 95° |
| 2026-04-29 17:16 | -22.49909 | -68.89303 | 7599 ft | 28 kts | 94° |
| 2026-04-29 17:17 | -22.49922 | -68.89112 | 7613 ft | 23 kts | 95° |
| 2026-04-29 17:17 | -22.49933 | -68.88957 | 7625 ft | 18 kts | 94° |
| 2026-04-29 17:17 | -22.49948 | -68.88848 | 7639 ft | 9 kts | 127° |
| 2026-04-29 17:17 | -22.49971 | -68.88842 | 7641 ft | 5 kts | 174° |
| 2026-04-29 17:18 | -22.50033 | -68.88844 | 7643 ft | 13 kts | 184° |
| 2026-04-29 17:18 | -22.50108 | -68.88860 | 7639 ft | 3 kts | 244° |
| 2026-04-29 17:18 | -22.50107 | -68.88940 | 7630 ft | 34 kts | 275° |
| 2026-04-29 17:18 | -22.50066 | -68.89522 | 7590 ft | 119 kts | 274° |
| 2026-04-29 17:19 | -22.49986 | -68.90678 | 7566 ft | 183 kts | 274° |
| 2026-04-29 17:19 | -22.49911 | -68.92073 | 8175 ft | 188 kts | 271° |
| 2026-04-29 17:19 | -22.49839 | -68.93481 | 9074 ft | 187 kts | 274° |
| 2026-04-29 17:19 | -22.49731 | -68.94978 | 9752 ft | 214 kts | 275° |
| 2026-04-29 17:20 | -22.49598 | -68.96669 | 10414 ft | 236 kts | 275° |
| 2026-04-29 17:20 | -22.49459 | -68.98517 | 11131 ft | 257 kts | 274° |
| 2026-04-29 17:20 | -22.49313 | -69.00520 | 11824 ft | 277 kts | 274° |
| 2026-04-29 17:20 | -22.49387 | -69.02666 | 12491 ft | 296 kts | 258° |
| 2026-04-29 17:21 | -22.50217 | -69.04755 | 13249 ft | 311 kts | 237° |
| 2026-04-29 17:21 | -22.51674 | -69.06532 | 14118 ft | 318 kts | 227° |
| 2026-04-29 17:21 | -22.52944 | -69.08454 | 14881 ft | 324 kts | 244° |
| 2026-04-29 17:21 | -22.53910 | -69.10688 | 15037 ft | 323 kts | 245° |
| 2026-04-29 17:22 | -22.54890 | -69.12842 | 15180 ft | 323 kts | 244° |
| 2026-04-29 17:22 | -22.55898 | -69.15023 | 15318 ft | 324 kts | 244° |
| 2026-04-29 17:22 | -22.56913 | -69.17201 | 15462 ft | 325 kts | 244° |
| 2026-04-29 17:22 | -22.57935 | -69.19383 | 15607 ft | 326 kts | 243° |
| 2026-04-29 17:23 | -22.58961 | -69.21565 | 15766 ft | 326 kts | 243° |
| 2026-04-29 17:23 | -22.59994 | -69.23764 | 15848 ft | 330 kts | 243° |
| 2026-04-29 17:23 | -22.61035 | -69.25979 | 15864 ft | 331 kts | 243° |
| 2026-04-29 17:23 | -22.62080 | -69.28202 | 15873 ft | 331 kts | 243° |
| 2026-04-29 17:24 | -22.63123 | -69.30422 | 15867 ft | 331 kts | 243° |
| 2026-04-29 17:24 | -22.64167 | -69.32644 | 15861 ft | 331 kts | 243° |
| 2026-04-29 17:24 | -22.65210 | -69.34867 | 15870 ft | 331 kts | 243° |
| 2026-04-29 17:24 | -22.66253 | -69.37090 | 15854 ft | 331 kts | 243° |
| 2026-04-29 17:25 | -22.67296 | -69.39313 | 15855 ft | 331 kts | 243° |
| 2026-04-29 17:25 | -22.68337 | -69.41535 | 15853 ft | 331 kts | 244° |
| 2026-04-29 17:25 | -22.69379 | -69.43759 | 15854 ft | 331 kts | 243° |
| 2026-04-29 17:25 | -22.70422 | -69.45985 | 15853 ft | 331 kts | 243° |
| 2026-04-29 17:26 | -22.71463 | -69.48209 | 15851 ft | 331 kts | 244° |
| 2026-04-29 17:26 | -22.72504 | -69.50432 | 15855 ft | 331 kts | 244° |
| 2026-04-29 17:26 | -22.73546 | -69.52661 | 15850 ft | 332 kts | 244° |
| 2026-04-29 17:26 | -22.74587 | -69.54888 | 15853 ft | 331 kts | 244° |
| 2026-04-29 17:27 | -22.75628 | -69.57116 | 15854 ft | 331 kts | 244° |
| 2026-04-29 17:27 | -22.76668 | -69.59343 | 15854 ft | 331 kts | 244° |
| 2026-04-29 17:27 | -22.77709 | -69.61573 | 15849 ft | 332 kts | 244° |
| 2026-04-29 17:27 | -22.78750 | -69.63802 | 15858 ft | 332 kts | 244° |
| 2026-04-29 17:28 | -22.79790 | -69.66031 | 15854 ft | 331 kts | 244° |
| 2026-04-29 17:28 | -22.80770 | -69.68288 | 15862 ft | 331 kts | 247° |
| 2026-04-29 17:28 | -22.81674 | -69.70586 | 15863 ft | 332 kts | 247° |
| 2026-04-29 17:28 | -22.82587 | -69.72881 | 15865 ft | 332 kts | 247° |
| 2026-04-29 17:29 | -22.83504 | -69.75175 | 15869 ft | 332 kts | 247° |
| 2026-04-29 17:29 | -22.84424 | -69.77471 | 15873 ft | 332 kts | 247° |
| 2026-04-29 17:29 | -22.85343 | -69.79763 | 15883 ft | 332 kts | 247° |
| 2026-04-29 17:29 | -22.85953 | -69.81283 | 15887 ft | 332 kts | 247° |
| 2026-04-29 17:30 | -22.87183 | -69.84354 | 15891 ft | 332 kts | 247° |
| 2026-04-29 17:30 | -22.88101 | -69.86649 | 15890 ft | 332 kts | 247° |
| 2026-04-29 17:30 | -22.89020 | -69.88942 | 15902 ft | 332 kts | 247° |
| 2026-04-29 17:30 | -22.89937 | -69.91236 | 15913 ft | 332 kts | 247° |
| 2026-04-29 17:31 | -22.90856 | -69.93531 | 15915 ft | 332 kts | 247° |
| 2026-04-29 17:31 | -22.91772 | -69.95826 | 15924 ft | 332 kts | 247° |
| 2026-04-29 17:31 | -22.92689 | -69.98121 | 15922 ft | 332 kts | 247° |
| 2026-04-29 17:31 | -22.93607 | -70.00420 | 15927 ft | 332 kts | 247° |
| 2026-04-29 17:32 | -22.94523 | -70.02716 | 15934 ft | 332 kts | 247° |
| 2026-04-29 17:32 | -22.95440 | -70.05013 | 15940 ft | 332 kts | 247° |
| 2026-04-29 17:32 | -22.96357 | -70.07313 | 15941 ft | 332 kts | 247° |
| 2026-04-29 17:32 | -22.97261 | -70.09581 | 15951 ft | 332 kts | 247° |
| 2026-04-29 17:33 | -22.98170 | -70.11870 | 15956 ft | 318 kts | 247° |
| 2026-04-29 17:33 | -22.99029 | -70.14039 | 15843 ft | 309 kts | 247° |
| 2026-04-29 17:33 | -22.99870 | -70.16164 | 15560 ft | 305 kts | 247° |
| 2026-04-29 17:33 | -23.00692 | -70.18241 | 15256 ft | 303 kts | 247° |
| 2026-04-29 17:34 | -23.01531 | -70.20362 | 14921 ft | 301 kts | 247° |
| 2026-04-29 17:34 | -23.02354 | -70.22442 | 14586 ft | 299 kts | 247° |
| 2026-04-29 17:34 | -23.03171 | -70.24510 | 14272 ft | 297 kts | 247° |
| 2026-04-29 17:34 | -23.03986 | -70.26572 | 13939 ft | 297 kts | 247° |
| 2026-04-29 17:35 | -23.05060 | -70.29293 | 13471 ft | 296 kts | 247° |
| 2026-04-29 17:35 | -23.06419 | -70.32737 | 12840 ft | 295 kts | 247° |
| 2026-04-29 17:35 | -23.07223 | -70.34777 | 12533 ft | 293 kts | 247° |
| 2026-04-29 17:36 | -23.08024 | -70.36807 | 12218 ft | 291 kts | 247° |
| 2026-04-29 17:36 | -23.09015 | -70.38704 | 11863 ft | 291 kts | 229° |
| 2026-04-29 17:36 | -23.10627 | -70.40010 | 11531 ft | 291 kts | 205° |
| 2026-04-29 17:36 | -23.12577 | -70.40542 | 11241 ft | 289 kts | 188° |
| 2026-04-29 17:37 | -23.14567 | -70.40814 | 10939 ft | 288 kts | 188° |
| 2026-04-29 17:37 | -23.16549 | -70.41088 | 10610 ft | 286 kts | 191° |
| 2026-04-29 17:37 | -23.18439 | -70.41713 | 10216 ft | 292 kts | 201° |
| 2026-04-29 17:37 | -23.20367 | -70.42483 | 9832 ft | 298 kts | 200° |
| 2026-04-29 17:38 | -23.22322 | -70.43252 | 9451 ft | 300 kts | 200° |
| 2026-04-29 17:38 | -23.24291 | -70.44018 | 9109 ft | 300 kts | 200° |
| 2026-04-29 17:38 | -23.26255 | -70.44779 | 8775 ft | 299 kts | 200° |
| 2026-04-29 17:38 | -23.28205 | -70.45532 | 8446 ft | 296 kts | 200° |
| 2026-04-29 17:39 | -23.30141 | -70.46281 | 8119 ft | 294 kts | 200° |
| 2026-04-29 17:39 | -23.32065 | -70.47023 | 7798 ft | 293 kts | 200° |
| 2026-04-29 17:39 | -23.33979 | -70.47762 | 7474 ft | 291 kts | 200° |
| 2026-04-29 17:39 | -23.35882 | -70.48498 | 7150 ft | 290 kts | 200° |
| 2026-04-29 17:40 | -23.37776 | -70.49230 | 6830 ft | 288 kts | 200° |
| 2026-04-29 17:40 | -23.39665 | -70.49960 | 6509 ft | 287 kts | 200° |
| 2026-04-29 17:40 | -23.41545 | -70.50687 | 6174 ft | 286 kts | 200° |
| 2026-04-29 17:40 | -23.43414 | -70.51410 | 5835 ft | 285 kts | 200° |
| 2026-04-29 17:41 | -23.45253 | -70.52121 | 5551 ft | 282 kts | 200° |
| 2026-04-29 17:41 | -23.47077 | -70.52827 | 5398 ft | 275 kts | 200° |
| 2026-04-29 17:41 | -23.48888 | -70.53385 | 5236 ft | 268 kts | 189° |
| 2026-04-29 17:41 | -23.50712 | -70.53670 | 5086 ft | 262 kts | 188° |
| 2026-04-29 17:42 | -23.52490 | -70.53948 | 4963 ft | 254 kts | 188° |
| 2026-04-29 17:42 | -23.54210 | -70.54222 | 4834 ft | 246 kts | 189° |
| 2026-04-29 17:42 | -23.55882 | -70.54493 | 4671 ft | 239 kts | 189° |
| 2026-04-29 17:42 | -23.57511 | -70.54667 | 4472 ft | 234 kts | 179° |
| 2026-04-29 17:43 | -23.59093 | -70.54315 | 4159 ft | 233 kts | 155° |
| 2026-04-29 17:43 | -23.60383 | -70.53276 | 3887 ft | 231 kts | 130° |
| 2026-04-29 17:43 | -23.61145 | -70.51817 | 3760 ft | 215 kts | 108° |
| 2026-04-29 17:43 | -23.61364 | -70.50270 | 3628 ft | 201 kts | 87° |
| 2026-04-29 17:44 | -23.61108 | -70.48827 | 3484 ft | 189 kts | 68° |
| 2026-04-29 17:44 | -23.60723 | -70.47994 | 3381 ft | 183 kts | 56° |
| 2026-04-29 17:44 | -23.59883 | -70.46978 | 3140 ft | 179 kts | 38° |
| 2026-04-29 17:44 | -23.58814 | -70.46308 | 2885 ft | 177 kts | 19° |
| 2026-04-29 17:45 | -23.57634 | -70.46031 | 2712 ft | 170 kts | 4° |
| 2026-04-29 17:45 | -23.56484 | -70.45916 | 2583 ft | 162 kts | 4° |
| 2026-04-29 17:45 | -23.55399 | -70.45801 | 2473 ft | 153 kts | 4° |
| 2026-04-29 17:45 | -23.54347 | -70.45687 | 2322 ft | 150 kts | 4° |
| 2026-04-29 17:46 | -23.53339 | -70.45587 | 2066 ft | 143 kts | 4° |
| 2026-04-29 17:46 | -23.52368 | -70.45471 | 1813 ft | 139 kts | 5° |
| 2026-04-29 17:46 | -23.51422 | -70.45359 | 1573 ft | 137 kts | 4° |
| 2026-04-29 17:46 | -23.50481 | -70.45256 | 1424 ft | 135 kts | 5° |
| 2026-04-29 17:47 | -23.49546 | -70.45140 | 1216 ft | 135 kts | 5° |
| 2026-04-29 17:47 | -23.48607 | -70.45026 | 1088 ft | 135 kts | 6° |
| 2026-04-29 17:47 | -23.47682 | -70.44911 | 959 ft | 133 kts | 5° |
| 2026-04-29 17:47 | -23.46757 | -70.44798 | 733 ft | 133 kts | 6° |
| 2026-04-29 17:48 | -23.45844 | -70.44688 | 567 ft | 131 kts | 7° |
| 2026-04-29 17:48 | -23.44964 | -70.44577 | 464 ft | 113 kts | 7° |
| 2026-04-29 17:48 | -23.44422 | -70.44511 | 463 ft | 59 kts | 7° |
| 2026-04-29 17:48 | -23.44165 | -70.44480 | 465 ft | 13 kts | 9° |
| 2026-04-29 17:49 | -23.44133 | -70.44405 | 465 ft | 14 kts | 97° |
| 2026-04-29 17:49 | -23.44158 | -70.44295 | 464 ft | 13 kts | 136° |
| 2026-04-29 17:49 | -23.44229 | -70.44294 | 464 ft | 12 kts | 187° |
| 2026-04-29 17:49 | -23.44359 | -70.44310 | 462 ft | 26 kts | 186° |
| 2026-04-29 17:50 | -23.44544 | -70.44333 | 462 ft | 23 kts | 185° |
| 2026-04-29 17:50 | -23.44701 | -70.44304 | 464 ft | 17 kts | 165° |
| 2026-04-29 17:50 | -23.44768 | -70.44283 | 464 ft | 0 kts | 164° |
| 2026-04-29 17:50 | -23.44772 | -70.44282 | 464 ft | 0 kts | 164° |
| 2026-04-29 17:51 | -23.44796 | -70.44264 | 464 ft | 8 kts | 120° |
| 2026-04-29 17:51 | -23.44786 | -70.44210 | 464 ft | 4 kts | 81° |
| 2026-04-29 17:51 | -23.44789 | -70.44175 | 464 ft | 0 kts | 96° |
| 2026-04-29 17:52 | -23.44790 | -70.44166 | 464 ft | 1 kts | 96° |
| 2026-04-29 17:52 | -23.44790 | -70.44165 | 464 ft | 0 kts | 96° |